sensor_id;sensor_type;location;lat;lon;timestamp;pressure;altitude;pressure_sealevel;temperature;humidity
6144;BME280;3103;49.492;8.474;2023-01-28T00:01:18;101293.56;;;5.19;77.89
6144;BME280;3103;49.492;8.474;2023-01-28T00:03:48;101299.28;;;5.16;78.35
6144;BME280;3103;49.492;8.474;2023-01-28T00:06:16;101300.53;;;5.05;78.16
6144;BME280;3103;49.492;8.474;2023-01-28T00:08:44;101303.31;;;5.12;77.97
6144;BME280;3103;49.492;8.474;2023-01-28T00:11:12;101302.69;;;5.10;77.94
6144;BME280;3103;49.492;8.474;2023-01-28T00:13:39;101298.63;;;5.14;78.02
6144;BME280;3103;49.492;8.474;2023-01-28T00:16:06;101294.69;;;5.10;77.58
6144;BME280;3103;49.492;8.474;2023-01-28T00:18:35;101298.81;;;4.98;77.86
6144;BME280;3103;49.492;8.474;2023-01-28T00:21:19;101287.41;;;5.04;77.73
6144;BME280;3103;49.492;8.474;2023-01-28T00:23:50;101285.75;;;5.03;78.19
6144;BME280;3103;49.492;8.474;2023-01-28T00:26:17;101284.22;;;5.09;77.18
6144;BME280;3103;49.492;8.474;2023-01-28T00:28:44;101282.91;;;5.04;77.62
6144;BME280;3103;49.492;8.474;2023-01-28T00:33:40;101289.81;;;4.99;77.33
6144;BME280;3103;49.492;8.474;2023-01-28T00:36:09;101283.38;;;4.93;77.56
6144;BME280;3103;49.492;8.474;2023-01-28T00:38:36;101290.88;;;4.90;77.97
6144;BME280;3103;49.492;8.474;2023-01-28T00:41:17;101279.91;;;4.93;77.75
6144;BME280;3103;49.492;8.474;2023-01-28T00:43:44;101286.59;;;5.03;77.52
6144;BME280;3103;49.492;8.474;2023-01-28T00:46:11;101283.28;;;5.01;77.58
6144;BME280;3103;49.492;8.474;2023-01-28T00:48:40;101283.56;;;5.06;77.91
6144;BME280;3103;49.492;8.474;2023-01-28T00:51:11;101279.59;;;4.88;77.44
6144;BME280;3103;49.492;8.474;2023-01-28T00:53:38;101279.72;;;5.09;77.00
6144;BME280;3103;49.492;8.474;2023-01-28T00:56:07;101284.94;;;5.17;77.08
6144;BME280;3103;49.492;8.474;2023-01-28T00:58:34;101284.91;;;4.88;77.38
6144;BME280;3103;49.492;8.474;2023-01-28T01:01:11;101287.34;;;5.12;77.30
6144;BME280;3103;49.492;8.474;2023-01-28T01:03:38;101284.75;;;5.04;76.88
6144;BME280;3103;49.492;8.474;2023-01-28T01:06:05;101280.63;;;5.01;77.22
6144;BME280;3103;49.492;8.474;2023-01-28T01:08:32;101282.72;;;5.06;76.71
6144;BME280;3103;49.492;8.474;2023-01-28T01:11:06;101287.72;;;5.09;77.12
6144;BME280;3103;49.492;8.474;2023-01-28T01:13:33;101289.63;;;5.15;77.12
6144;BME280;3103;49.492;8.474;2023-01-28T01:18:33;101284.28;;;4.86;77.04
6144;BME280;3103;49.492;8.474;2023-01-28T01:21:00;101287.97;;;4.99;76.77
6144;BME280;3103;49.492;8.474;2023-01-28T01:23:29;101286.19;;;4.92;76.97
6144;BME280;3103;49.492;8.474;2023-01-28T01:25:56;101293.47;;;4.98;76.84
6144;BME280;3103;49.492;8.474;2023-01-28T01:28:22;101293.94;;;5.01;76.64
6144;BME280;3103;49.492;8.474;2023-01-28T01:31:05;101300.81;;;4.96;76.91
6144;BME280;3103;49.492;8.474;2023-01-28T01:33:32;101291.91;;;4.89;76.38
6144;BME280;3103;49.492;8.474;2023-01-28T01:35:59;101302.13;;;5.00;76.08
6144;BME280;3103;49.492;8.474;2023-01-28T01:38:27;101289.44;;;5.02;76.32
6144;BME280;3103;49.492;8.474;2023-01-28T01:40:58;101296.16;;;4.98;75.55
6144;BME280;3103;49.492;8.474;2023-01-28T01:43:56;101285.22;;;4.93;76.23
6144;BME280;3103;49.492;8.474;2023-01-28T01:46:40;101290.19;;;4.96;75.77
6144;BME280;3103;49.492;8.474;2023-01-28T01:49:18;101296.94;;;4.84;76.37
6144;BME280;3103;49.492;8.474;2023-01-28T01:51:48;101292.53;;;4.91;75.85
6144;BME280;3103;49.492;8.474;2023-01-28T01:54:16;101302.66;;;4.95;75.95
6144;BME280;3103;49.492;8.474;2023-01-28T01:56:46;101303.31;;;4.97;75.46
6144;BME280;3103;49.492;8.474;2023-01-28T01:59:19;101300.34;;;4.92;75.89
6144;BME280;3103;49.492;8.474;2023-01-28T02:01:47;101298.41;;;4.86;76.29
6144;BME280;3103;49.492;8.474;2023-01-28T02:06:47;101305.50;;;4.94;75.68
6144;BME280;3103;49.492;8.474;2023-01-28T02:09:26;101294.75;;;4.87;75.97
6144;BME280;3103;49.492;8.474;2023-01-28T02:12:20;101300.50;;;4.76;75.80
6144;BME280;3103;49.492;8.474;2023-01-28T02:14:52;101302.00;;;4.79;76.12
6144;BME280;3103;49.492;8.474;2023-01-28T02:17:20;101295.19;;;4.91;75.81
6144;BME280;3103;49.492;8.474;2023-01-28T02:20:00;101301.53;;;4.90;75.87
6144;BME280;3103;49.492;8.474;2023-01-28T02:34:07;101311.69;;;4.71;76.88
6144;BME280;3103;49.492;8.474;2023-01-28T02:36:44;101310.50;;;4.74;76.44
6144;BME280;3103;49.492;8.474;2023-01-28T02:39:25;101308.22;;;4.71;76.18
6144;BME280;3103;49.492;8.474;2023-01-28T02:42:33;101315.44;;;4.62;76.64
6144;BME280;3103;49.492;8.474;2023-01-28T02:45:01;101306.09;;;4.66;76.29
6144;BME280;3103;49.492;8.474;2023-01-28T02:47:30;101303.63;;;4.65;76.18
6144;BME280;3103;49.492;8.474;2023-01-28T02:50:17;101297.56;;;4.71;76.20
6144;BME280;3103;49.492;8.474;2023-01-28T02:53:29;101287.88;;;4.55;76.48
6144;BME280;3103;49.492;8.474;2023-01-28T02:56:31;101298.06;;;4.52;76.93
6144;BME280;3103;49.492;8.474;2023-01-28T02:59:10;101300.06;;;4.50;76.55
6144;BME280;3103;49.492;8.474;2023-01-28T03:02:05;101305.22;;;4.51;77.25
6144;BME280;3103;49.492;8.474;2023-01-28T03:05:02;101302.19;;;4.54;77.24
6144;BME280;3103;49.492;8.474;2023-01-28T03:07:33;101306.94;;;4.44;76.89
6144;BME280;3103;49.492;8.474;2023-01-28T03:10:04;101304.91;;;4.46;77.15
6144;BME280;3103;49.492;8.474;2023-01-28T03:12:37;101312.06;;;4.45;76.98
6144;BME280;3103;49.492;8.474;2023-01-28T03:15:34;101319.69;;;4.48;77.65
6144;BME280;3103;49.492;8.474;2023-01-28T03:18:24;101323.84;;;4.51;77.26
6144;BME280;3103;49.492;8.474;2023-01-28T03:21:27;101318.88;;;4.48;77.78
6144;BME280;3103;49.492;8.474;2023-01-28T03:24:25;101318.22;;;4.46;77.12
6144;BME280;3103;49.492;8.474;2023-01-28T03:27:33;101322.34;;;4.48;77.88
6144;BME280;3103;49.492;8.474;2023-01-28T03:30:28;101316.84;;;4.50;76.91
6144;BME280;3103;49.492;8.474;2023-01-28T03:33:24;101306.00;;;4.37;76.53
6144;BME280;3103;49.492;8.474;2023-01-28T03:36:10;101304.03;;;4.31;77.41
6144;BME280;3103;49.492;8.474;2023-01-28T03:38:56;101313.25;;;4.20;77.21
6144;BME280;3103;49.492;8.474;2023-01-28T03:41:25;101318.59;;;4.43;77.05
6144;BME280;3103;49.492;8.474;2023-01-28T03:43:53;101324.84;;;4.50;76.59
6144;BME280;3103;49.492;8.474;2023-01-28T03:46:21;101328.03;;;4.45;76.38
6144;BME280;3103;49.492;8.474;2023-01-28T03:48:48;101343.25;;;4.37;76.29
6144;BME280;3103;49.492;8.474;2023-01-28T03:51:15;101337.31;;;4.50;76.22
6144;BME280;3103;49.492;8.474;2023-01-28T03:53:43;101331.53;;;4.46;75.83
6144;BME280;3103;49.492;8.474;2023-01-28T03:56:10;101350.50;;;4.43;76.10
6144;BME280;3103;49.492;8.474;2023-01-28T03:58:43;101355.53;;;4.38;76.42
6144;BME280;3103;49.492;8.474;2023-01-28T04:01:22;101355.81;;;4.20;76.20
6144;BME280;3103;49.492;8.474;2023-01-28T04:03:49;101352.81;;;4.23;76.53
6144;BME280;3103;49.492;8.474;2023-01-28T04:06:23;101360.69;;;4.39;76.48
6144;BME280;3103;49.492;8.474;2023-01-28T04:08:55;101354.19;;;4.42;76.37
6144;BME280;3103;49.492;8.474;2023-01-28T04:12:00;101361.69;;;4.38;75.95
6144;BME280;3103;49.492;8.474;2023-01-28T04:14:33;101358.84;;;4.40;76.07
6144;BME280;3103;49.492;8.474;2023-01-28T04:17:07;101349.16;;;4.24;76.60
6144;BME280;3103;49.492;8.474;2023-01-28T04:19:39;101346.25;;;4.34;76.02
6144;BME280;3103;49.492;8.474;2023-01-28T04:22:09;101349.41;;;4.37;75.97
6144;BME280;3103;49.492;8.474;2023-01-28T04:24:38;101349.22;;;4.39;75.78
6144;BME280;3103;49.492;8.474;2023-01-28T04:27:04;101351.38;;;4.35;76.32
6144;BME280;3103;49.492;8.474;2023-01-28T04:29:31;101355.19;;;4.41;75.81
6144;BME280;3103;49.492;8.474;2023-01-28T04:32:11;101359.50;;;4.42;75.63
6144;BME280;3103;49.492;8.474;2023-01-28T04:34:53;101354.34;;;4.40;75.48
6144;BME280;3103;49.492;8.474;2023-01-28T04:37:37;101357.72;;;4.34;75.90
6144;BME280;3103;49.492;8.474;2023-01-28T04:40:22;101356.69;;;4.35;76.15
6144;BME280;3103;49.492;8.474;2023-01-28T04:43:00;101351.75;;;4.32;76.02
6144;BME280;3103;49.492;8.474;2023-01-28T04:45:53;101362.16;;;4.42;75.73
6144;BME280;3103;49.492;8.474;2023-01-28T04:48:39;101356.69;;;4.35;75.13
6144;BME280;3103;49.492;8.474;2023-01-28T04:51:38;101359.28;;;4.21;75.68
6144;BME280;3103;49.492;8.474;2023-01-28T04:54:17;101362.19;;;4.34;75.13
6144;BME280;3103;49.492;8.474;2023-01-28T04:56:43;101366.38;;;4.36;75.21
6144;BME280;3103;49.492;8.474;2023-01-28T04:59:10;101359.78;;;4.24;74.96
6144;BME280;3103;49.492;8.474;2023-01-28T05:01:37;101367.69;;;4.09;75.68
6144;BME280;3103;49.492;8.474;2023-01-28T05:04:05;101365.09;;;4.24;75.53
6144;BME280;3103;49.492;8.474;2023-01-28T05:06:35;101368.25;;;4.28;75.09
6144;BME280;3103;49.492;8.474;2023-01-28T05:09:08;101366.00;;;4.39;74.54
6144;BME280;3103;49.492;8.474;2023-01-28T05:11:35;101370.31;;;4.40;74.19
6144;BME280;3103;49.492;8.474;2023-01-28T05:14:06;101369.31;;;4.41;74.16
6144;BME280;3103;49.492;8.474;2023-01-28T05:16:45;101371.66;;;4.13;74.48
6144;BME280;3103;49.492;8.474;2023-01-28T05:19:11;101379.31;;;4.39;74.49
6144;BME280;3103;49.492;8.474;2023-01-28T05:21:43;101373.03;;;4.32;73.97
6144;BME280;3103;49.492;8.474;2023-01-28T05:24:31;101375.50;;;4.34;73.76
6144;BME280;3103;49.492;8.474;2023-01-28T05:26:58;101378.81;;;4.36;74.02
6144;BME280;3103;49.492;8.474;2023-01-28T05:29:25;101383.50;;;4.34;73.65
6144;BME280;3103;49.492;8.474;2023-01-28T05:31:52;101380.53;;;4.29;73.48
6144;BME280;3103;49.492;8.474;2023-01-28T05:34:19;101386.50;;;4.31;73.28
6144;BME280;3103;49.492;8.474;2023-01-28T05:36:46;101396.47;;;4.37;73.64
6144;BME280;3103;49.492;8.474;2023-01-28T05:39:45;101390.63;;;4.33;73.13
6144;BME280;3103;49.492;8.474;2023-01-28T05:42:11;101391.34;;;4.27;73.63
6144;BME280;3103;49.492;8.474;2023-01-28T05:44:43;101398.50;;;4.27;73.40
6144;BME280;3103;49.492;8.474;2023-01-28T05:47:15;101398.88;;;4.24;73.16
6144;BME280;3103;49.492;8.474;2023-01-28T05:49:58;101401.16;;;4.27;74.07
6144;BME280;3103;49.492;8.474;2023-01-28T05:52:45;101405.00;;;4.24;73.90
6144;BME280;3103;49.492;8.474;2023-01-28T05:55:20;101415.50;;;4.17;73.94
6144;BME280;3103;49.492;8.474;2023-01-28T05:57:47;101414.84;;;4.15;73.93
6144;BME280;3103;49.492;8.474;2023-01-28T06:00:16;101411.63;;;4.28;73.86
6144;BME280;3103;49.492;8.474;2023-01-28T06:02:44;101419.44;;;4.30;74.03
6144;BME280;3103;49.492;8.474;2023-01-28T06:05:13;101420.91;;;4.32;74.12
6144;BME280;3103;49.492;8.474;2023-01-28T06:07:43;101416.31;;;4.26;74.34
6144;BME280;3103;49.492;8.474;2023-01-28T06:10:10;101425.84;;;4.12;74.16
6144;BME280;3103;49.492;8.474;2023-01-28T06:12:39;101423.91;;;3.98;75.24
6144;BME280;3103;49.492;8.474;2023-01-28T06:15:25;101429.63;;;4.18;74.73
6144;BME280;3103;49.492;8.474;2023-01-28T06:18:01;101428.31;;;4.14;75.45
6144;BME280;3103;49.492;8.474;2023-01-28T06:20:31;101437.78;;;4.16;75.43
6144;BME280;3103;49.492;8.474;2023-01-28T06:22:59;101435.44;;;4.22;75.38
6144;BME280;3103;49.492;8.474;2023-01-28T06:25:26;101450.09;;;4.17;75.60
6144;BME280;3103;49.492;8.474;2023-01-28T06:27:54;101445.38;;;4.28;75.88
6144;BME280;3103;49.492;8.474;2023-01-28T06:30:20;101448.78;;;4.13;75.87
6144;BME280;3103;49.492;8.474;2023-01-28T06:32:53;101450.78;;;4.11;75.60
6144;BME280;3103;49.492;8.474;2023-01-28T06:35:19;101454.75;;;4.15;76.35
6144;BME280;3103;49.492;8.474;2023-01-28T06:37:46;101464.84;;;4.20;77.04
6144;BME280;3103;49.492;8.474;2023-01-28T06:40:13;101462.91;;;4.06;76.49
6144;BME280;3103;49.492;8.474;2023-01-28T06:42:40;101467.75;;;4.10;76.30
6144;BME280;3103;49.492;8.474;2023-01-28T06:45:09;101467.75;;;4.10;76.21
6144;BME280;3103;49.492;8.474;2023-01-28T06:47:37;101472.06;;;4.11;76.31
6144;BME280;3103;49.492;8.474;2023-01-28T06:50:05;101479.06;;;4.04;76.89
6144;BME280;3103;49.492;8.474;2023-01-28T06:52:31;101480.06;;;4.03;77.25
6144;BME280;3103;49.492;8.474;2023-01-28T06:54:58;101485.03;;;4.06;76.46
6144;BME280;3103;49.492;8.474;2023-01-28T06:57:25;101486.38;;;4.02;76.50
6144;BME280;3103;49.492;8.474;2023-01-28T06:59:51;101486.72;;;3.91;76.88
6144;BME280;3103;49.492;8.474;2023-01-28T07:02:18;101489.72;;;3.96;76.71
6144;BME280;3103;49.492;8.474;2023-01-28T07:04:45;101494.75;;;3.83;77.64
6144;BME280;3103;49.492;8.474;2023-01-28T07:07:11;101492.41;;;3.88;77.54
6144;BME280;3103;49.492;8.474;2023-01-28T07:09:38;101485.56;;;4.02;76.56
6144;BME280;3103;49.492;8.474;2023-01-28T07:12:05;101494.88;;;3.98;76.96
6144;BME280;3103;49.492;8.474;2023-01-28T07:14:31;101491.38;;;3.97;76.01
6144;BME280;3103;49.492;8.474;2023-01-28T07:16:58;101490.69;;;4.03;76.94
6144;BME280;3103;49.492;8.474;2023-01-28T07:19:25;101492.34;;;4.04;76.24
6144;BME280;3103;49.492;8.474;2023-01-28T07:21:51;101493.34;;;4.11;75.88
6144;BME280;3103;49.492;8.474;2023-01-28T07:24:18;101501.34;;;4.03;75.58
6144;BME280;3103;49.492;8.474;2023-01-28T07:26:46;101501.50;;;4.10;76.30
6144;BME280;3103;49.492;8.474;2023-01-28T07:29:13;101494.84;;;4.06;76.18
6144;BME280;3103;49.492;8.474;2023-01-28T07:31:40;101503.31;;;4.09;75.52
6144;BME280;3103;49.492;8.474;2023-01-28T07:34:08;101499.50;;;4.12;75.35
6144;BME280;3103;49.492;8.474;2023-01-28T07:36:35;101500.84;;;4.00;75.56
6144;BME280;3103;49.492;8.474;2023-01-28T07:39:01;101495.53;;;4.00;75.63
6144;BME280;3103;49.492;8.474;2023-01-28T07:41:28;101493.34;;;4.03;75.56
6144;BME280;3103;49.492;8.474;2023-01-28T07:44:03;101492.84;;;4.08;75.49
6144;BME280;3103;49.492;8.474;2023-01-28T07:46:30;101503.28;;;4.17;74.92
6144;BME280;3103;49.492;8.474;2023-01-28T07:48:56;101505.47;;;4.06;74.09
6144;BME280;3103;49.492;8.474;2023-01-28T07:51:23;101500.03;;;3.99;74.34
6144;BME280;3103;49.492;8.474;2023-01-28T07:53:50;101507.94;;;4.15;74.09
6144;BME280;3103;49.492;8.474;2023-01-28T07:56:16;101511.97;;;4.11;74.00
6144;BME280;3103;49.492;8.474;2023-01-28T07:58:43;101508.13;;;4.14;73.42
6144;BME280;3103;49.492;8.474;2023-01-28T08:01:09;101515.09;;;4.07;73.78
6144;BME280;3103;49.492;8.474;2023-01-28T08:03:36;101509.31;;;4.11;73.45
6144;BME280;3103;49.492;8.474;2023-01-28T08:06:03;101515.63;;;4.10;73.69
6144;BME280;3103;49.492;8.474;2023-01-28T08:08:30;101515.94;;;4.15;73.74
6144;BME280;3103;49.492;8.474;2023-01-28T08:10:57;101518.25;;;4.18;72.94
6144;BME280;3103;49.492;8.474;2023-01-28T08:13:24;101519.06;;;4.19;73.19
6144;BME280;3103;49.492;8.474;2023-01-28T08:15:54;101522.25;;;4.06;73.33
6144;BME280;3103;49.492;8.474;2023-01-28T08:18:21;101519.91;;;4.20;73.12
6144;BME280;3103;49.492;8.474;2023-01-28T08:20:48;101524.72;;;4.16;73.25
6144;BME280;3103;49.492;8.474;2023-01-28T08:23:18;101526.41;;;4.17;73.66
6144;BME280;3103;49.492;8.474;2023-01-28T08:25:47;101530.53;;;4.28;73.29
6144;BME280;3103;49.492;8.474;2023-01-28T08:28:15;101531.06;;;4.15;73.09
6144;BME280;3103;49.492;8.474;2023-01-28T08:30:43;101536.19;;;4.25;73.01
6144;BME280;3103;49.492;8.474;2023-01-28T08:33:12;101532.19;;;4.29;72.99
6144;BME280;3103;49.492;8.474;2023-01-28T08:35:39;101535.47;;;4.39;72.80
6144;BME280;3103;49.492;8.474;2023-01-28T08:38:07;101536.47;;;4.38;72.74
6144;BME280;3103;49.492;8.474;2023-01-28T08:40:34;101539.78;;;4.40;72.35
6144;BME280;3103;49.492;8.474;2023-01-28T08:43:01;101534.53;;;4.24;72.69
6144;BME280;3103;49.492;8.474;2023-01-28T08:45:28;101530.53;;;4.28;72.58
6144;BME280;3103;49.492;8.474;2023-01-28T08:48:00;101535.53;;;4.14;72.65
6144;BME280;3103;49.492;8.474;2023-01-28T08:50:31;101537.34;;;4.22;72.82
6144;BME280;3103;49.492;8.474;2023-01-28T08:53:00;101537.31;;;4.30;72.54
6144;BME280;3103;49.492;8.474;2023-01-28T08:55:29;101532.94;;;4.45;72.06
6144;BME280;3103;49.492;8.474;2023-01-28T08:57:56;101536.59;;;4.53;71.74
6144;BME280;3103;49.492;8.474;2023-01-28T09:00:24;101538.13;;;4.39;71.45
6144;BME280;3103;49.492;8.474;2023-01-28T09:02:51;101540.28;;;4.43;71.50
6144;BME280;3103;49.492;8.474;2023-01-28T09:05:19;101536.47;;;4.38;72.14
6144;BME280;3103;49.492;8.474;2023-01-28T09:07:47;101543.59;;;4.45;71.91
6144;BME280;3103;49.492;8.474;2023-01-28T09:10:14;101540.94;;;4.45;70.82
6144;BME280;3103;49.492;8.474;2023-01-28T09:12:42;101544.22;;;4.56;70.69
6144;BME280;3103;49.492;8.474;2023-01-28T09:15:10;101550.09;;;4.43;70.75
6144;BME280;3103;49.492;8.474;2023-01-28T09:17:37;101547.06;;;4.54;70.71
6144;BME280;3103;49.492;8.474;2023-01-28T09:20:05;101546.06;;;4.47;70.45
6144;BME280;3103;49.492;8.474;2023-01-28T09:22:32;101555.69;;;4.56;70.25
6144;BME280;3103;49.492;8.474;2023-01-28T09:24:59;101554.22;;;4.54;70.33
6144;BME280;3103;49.492;8.474;2023-01-28T09:27:26;101548.25;;;4.52;70.96
6144;BME280;3103;49.492;8.474;2023-01-28T09:29:52;101564.31;;;4.66;70.01
6144;BME280;3103;49.492;8.474;2023-01-28T09:32:19;101562.47;;;4.67;70.13
6144;BME280;3103;49.492;8.474;2023-01-28T09:34:46;101562.94;;;4.70;69.96
6144;BME280;3103;49.492;8.474;2023-01-28T09:37:13;101569.94;;;4.71;69.82
6144;BME280;3103;49.492;8.474;2023-01-28T09:39:40;101569.47;;;4.68;69.87
6144;BME280;3103;49.492;8.474;2023-01-28T09:42:26;101567.47;;;4.62;69.94
6144;BME280;3103;49.492;8.474;2023-01-28T09:47:38;101576.44;;;4.69;70.39
6144;BME280;3103;49.492;8.474;2023-01-28T09:50:11;101576.25;;;4.70;69.55
6144;BME280;3103;49.492;8.474;2023-01-28T09:52:41;101579.84;;;4.86;69.96
6144;BME280;3103;49.492;8.474;2023-01-28T09:57:52;101584.19;;;4.87;68.90
6144;BME280;3103;49.492;8.474;2023-01-28T10:00:30;101582.34;;;4.87;68.94
6144;BME280;3103;49.492;8.474;2023-01-28T10:03:25;101578.03;;;4.86;68.78
6144;BME280;3103;49.492;8.474;2023-01-28T10:06:20;101583.34;;;4.86;69.20
6144;BME280;3103;49.492;8.474;2023-01-28T10:11:40;101584.47;;;4.92;68.72
6144;BME280;3103;49.492;8.474;2023-01-28T10:14:19;101585.56;;;5.05;68.70
6144;BME280;3103;49.492;8.474;2023-01-28T10:16:55;101581.25;;;5.04;69.14
6144;BME280;3103;49.492;8.474;2023-01-28T10:19:29;101584.56;;;5.06;69.08
6144;BME280;3103;49.492;8.474;2023-01-28T10:22:03;101584.88;;;5.12;67.33
6144;BME280;3103;49.492;8.474;2023-01-28T10:24:39;101587.38;;;5.13;68.08
6144;BME280;3103;49.492;8.474;2023-01-28T10:27:11;101581.41;;;5.03;68.42
6144;BME280;3103;49.492;8.474;2023-01-28T10:29:40;101590.94;;;4.97;67.96
6144;BME280;3103;49.492;8.474;2023-01-28T10:34:46;101588.81;;;4.93;67.63
6144;BME280;3103;49.492;8.474;2023-01-28T10:37:13;101582.13;;;4.97;67.65
6144;BME280;3103;49.492;8.474;2023-01-28T10:39:42;101594.16;;;4.93;67.23
6144;BME280;3103;49.492;8.474;2023-01-28T10:42:30;101588.81;;;4.93;67.39
6144;BME280;3103;49.492;8.474;2023-01-28T10:45:31;101581.34;;;4.88;67.79
6144;BME280;3103;49.492;8.474;2023-01-28T10:48:06;101594.81;;;4.87;67.72
6144;BME280;3103;49.492;8.474;2023-01-28T10:50:34;101591.16;;;4.88;68.30
6144;BME280;3103;49.492;8.474;2023-01-28T10:53:03;101586.66;;;4.88;67.42
6144;BME280;3103;49.492;8.474;2023-01-28T10:55:45;101584.19;;;4.87;66.94
6144;BME280;3103;49.492;8.474;2023-01-28T10:58:18;101602.00;;;4.86;67.61
6144;BME280;3103;49.492;8.474;2023-01-28T11:00:52;101593.69;;;5.12;67.57
6144;BME280;3103;49.492;8.474;2023-01-28T11:03:19;101591.41;;;5.09;66.66
6144;BME280;3103;49.492;8.474;2023-01-28T11:05:51;101603.56;;;5.03;67.13
6144;BME280;3103;49.492;8.474;2023-01-28T11:08:18;101597.94;;;4.98;66.75
6144;BME280;3103;49.492;8.474;2023-01-28T11:10:46;101602.91;;;5.01;68.47
6144;BME280;3103;49.492;8.474;2023-01-28T11:13:18;101604.91;;;4.99;67.29
6144;BME280;3103;49.492;8.474;2023-01-28T11:16:09;101602.44;;;4.98;66.17
6144;BME280;3103;49.492;8.474;2023-01-28T11:18:39;101604.63;;;4.94;65.65
6144;BME280;3103;49.492;8.474;2023-01-28T11:21:15;101607.31;;;4.86;65.51
6144;BME280;3103;49.492;8.474;2023-01-28T11:23:53;101605.47;;;4.87;65.46
6144;BME280;3103;49.492;8.474;2023-01-28T11:26:31;101594.66;;;4.88;65.71
6144;BME280;3103;49.492;8.474;2023-01-28T11:28:58;101591.97;;;4.88;65.14
6144;BME280;3103;49.492;8.474;2023-01-28T11:31:26;101603.78;;;4.94;65.43
6144;BME280;3103;49.492;8.474;2023-01-28T11:36:24;101603.06;;;5.08;65.10
6144;BME280;3103;49.492;8.474;2023-01-28T11:38:56;101605.53;;;5.10;64.90
6144;BME280;3103;49.492;8.474;2023-01-28T11:41:27;101607.47;;;5.24;65.06
6144;BME280;3103;49.492;8.474;2023-01-28T11:43:54;101602.13;;;5.24;64.90
6144;BME280;3103;49.492;8.474;2023-01-28T11:52:04;101593.31;;;5.23;63.38
6144;BME280;3103;49.492;8.474;2023-01-28T11:54:51;101585.31;;;5.23;62.83
6144;BME280;3103;49.492;8.474;2023-01-28T11:57:27;101578.31;;;5.22;63.45
6144;BME280;3103;49.492;8.474;2023-01-28T12:05:47;101585.88;;;5.33;62.98
6144;BME280;3103;49.492;8.474;2023-01-28T12:08:28;101572.88;;;5.39;62.22
6144;BME280;3103;49.492;8.474;2023-01-28T12:14:20;101569.06;;;5.33;62.22
6144;BME280;3103;49.492;8.474;2023-01-28T12:22:07;101565.25;;;5.35;62.30
6144;BME280;3103;49.492;8.474;2023-01-28T12:25:03;101568.19;;;5.41;60.88
6144;BME280;3103;49.492;8.474;2023-01-28T12:28:07;101562.09;;;5.32;61.37
6144;BME280;3103;49.492;8.474;2023-01-28T12:31:03;101555.34;;;5.44;61.63
6144;BME280;3103;49.492;8.474;2023-01-28T12:33:47;101555.97;;;5.46;59.93
6144;BME280;3103;49.492;8.474;2023-01-28T12:36:32;101560.56;;;5.38;60.56
6144;BME280;3103;49.492;8.474;2023-01-28T12:42:12;101562.91;;;5.10;60.29
6144;BME280;3103;49.492;8.474;2023-01-28T12:44:49;101557.59;;;5.10;60.23
6144;BME280;3103;49.492;8.474;2023-01-28T12:47:32;101559.75;;;5.06;59.67
6144;BME280;3103;49.492;8.474;2023-01-28T12:50:10;101557.78;;;5.08;59.82
6144;BME280;3103;49.492;8.474;2023-01-28T12:52:45;101547.34;;;5.21;61.52
6144;BME280;3103;49.492;8.474;2023-01-28T12:57:40;101552.47;;;5.00;59.28
6144;BME280;3103;49.492;8.474;2023-01-28T13:00:33;101555.16;;;4.92;58.38
6144;BME280;3103;49.492;8.474;2023-01-28T13:05:51;101548.56;;;4.88;58.33
6144;BME280;3103;49.492;8.474;2023-01-28T13:08:27;101561.88;;;4.88;58.61
6144;BME280;3103;49.492;8.474;2023-01-28T13:10:56;101560.75;;;5.05;59.62
6144;BME280;3103;49.492;8.474;2023-01-28T13:13:37;101559.81;;;4.98;59.05
6144;BME280;3103;49.492;8.474;2023-01-28T13:16:07;101552.50;;;4.92;58.60
6144;BME280;3103;49.492;8.474;2023-01-28T13:24:20;101556.16;;;4.99;57.96
6144;BME280;3103;49.492;8.474;2023-01-28T13:26:54;101552.44;;;5.08;59.31
6144;BME280;3103;49.492;8.474;2023-01-28T13:31:54;101560.66;;;4.98;58.44
6144;BME280;3103;49.492;8.474;2023-01-28T13:34:32;101563.53;;;4.89;58.90
6144;BME280;3103;49.492;8.474;2023-01-28T13:37:43;101567.16;;;4.96;60.13
6144;BME280;3103;49.492;8.474;2023-01-28T13:40:28;101576.53;;;4.84;59.99
6144;BME280;3103;49.492;8.474;2023-01-28T13:43:04;101578.03;;;4.78;60.41
6144;BME280;3103;49.492;8.474;2023-01-28T13:45:33;101573.88;;;4.84;62.69
6144;BME280;3103;49.492;8.474;2023-01-28T13:51:17;101589.59;;;4.62;61.34
6144;BME280;3103;49.492;8.474;2023-01-28T14:05:58;101610.59;;;4.57;61.99
6144;BME280;3103;49.492;8.474;2023-01-28T14:18:56;101628.38;;;4.65;61.64
6144;BME280;3103;49.492;8.474;2023-01-28T14:21:26;101641.00;;;4.63;61.68
6144;BME280;3103;49.492;8.474;2023-01-28T14:23:55;101639.84;;;4.65;62.03
6144;BME280;3103;49.492;8.474;2023-01-28T14:26:52;101634.03;;;4.62;62.23
6144;BME280;3103;49.492;8.474;2023-01-28T14:29:48;101638.88;;;4.58;62.32
6144;BME280;3103;49.492;8.474;2023-01-28T14:32:18;101637.34;;;4.64;62.48
6144;BME280;3103;49.492;8.474;2023-01-28T14:34:47;101634.38;;;4.59;62.39
6144;BME280;3103;49.492;8.474;2023-01-28T14:37:18;101639.69;;;4.59;61.90
6144;BME280;3103;49.492;8.474;2023-01-28T14:39:55;101640.56;;;4.51;62.33
6144;BME280;3103;49.492;8.474;2023-01-28T14:42:25;101638.03;;;4.50;62.55
6144;BME280;3103;49.492;8.474;2023-01-28T14:53:51;101649.56;;;4.42;62.67
6144;BME280;3103;49.492;8.474;2023-01-28T14:59:23;101648.38;;;4.44;62.08
6144;BME280;3103;49.492;8.474;2023-01-28T15:01:57;101651.22;;;4.43;62.51
6144;BME280;3103;49.492;8.474;2023-01-28T15:06:53;101655.88;;;4.41;61.61
6144;BME280;3103;49.492;8.474;2023-01-28T15:09:21;101661.69;;;4.44;63.15
6144;BME280;3103;49.492;8.474;2023-01-28T15:11:52;101665.53;;;4.42;62.06
6144;BME280;3103;49.492;8.474;2023-01-28T15:14:29;101662.19;;;4.32;61.72
6144;BME280;3103;49.492;8.474;2023-01-28T15:16:57;101662.38;;;4.38;62.31
6144;BME280;3103;49.492;8.474;2023-01-28T15:19:34;101669.22;;;4.25;61.87
6144;BME280;3103;49.492;8.474;2023-01-28T15:22:06;101669.88;;;4.18;62.34
6144;BME280;3103;49.492;8.474;2023-01-28T15:24:34;101673.53;;;4.17;62.02
6144;BME280;3103;49.492;8.474;2023-01-28T15:27:01;101672.69;;;4.25;62.22
6144;BME280;3103;49.492;8.474;2023-01-28T15:29:33;101662.72;;;4.27;61.70
6144;BME280;3103;49.492;8.474;2023-01-28T15:32:01;101660.22;;;4.26;60.93
6144;BME280;3103;49.492;8.474;2023-01-28T15:34:29;101661.72;;;4.20;61.71
6144;BME280;3103;49.492;8.474;2023-01-28T15:36:59;101661.06;;;4.18;61.46
6144;BME280;3103;49.492;8.474;2023-01-28T15:39:28;101658.59;;;4.08;61.18
6144;BME280;3103;49.492;8.474;2023-01-28T15:42:04;101652.41;;;4.16;61.03
6144;BME280;3103;49.492;8.474;2023-01-28T15:44:38;101650.75;;;4.15;60.92